createdAt,value
2022-11-09T00:01:42.822Z,95810.53
2022-11-09T00:04:10.352Z,95794.53
2022-11-09T00:06:37.628Z,95795.06
2022-11-09T00:09:08.067Z,95807.03
2022-11-09T00:11:36.190Z,95801.91
2022-11-09T00:14:03.339Z,95818.00
2022-11-09T00:16:29.933Z,95793.06
2022-11-09T00:18:56.519Z,95811.38
2022-11-09T00:21:24.854Z,95821.25
2022-11-09T00:23:52.348Z,95807.16
2022-11-09T00:26:20.298Z,95798.84
2022-11-09T00:28:47.625Z,95816.81
2022-11-09T00:31:20.773Z,95779.81
2022-11-09T00:33:52.343Z,95805.38
2022-11-09T00:36:20.046Z,95800.63
2022-11-09T00:38:55.582Z,95799.78
2022-11-09T00:41:22.958Z,95798.09
2022-11-09T00:43:50.417Z,95779.34
2022-11-09T00:46:18.702Z,95788.91
2022-11-09T00:48:45.712Z,95791.66
2022-11-09T00:51:12.883Z,95784.28
2022-11-09T00:53:42.584Z,95803.00
2022-11-09T00:56:13.297Z,95802.91
2022-11-09T00:58:41.047Z,95775.56
2022-11-09T01:01:16.501Z,95793.78
2022-11-09T01:03:45.077Z,95801.31
2022-11-09T01:06:20.713Z,95796.19
2022-11-09T01:08:47.861Z,95795.75
2022-11-09T01:11:17.010Z,95778.69
2022-11-09T01:13:43.587Z,95779.28
2022-11-09T01:16:16.320Z,95811.81
2022-11-09T01:18:43.178Z,95778.25
2022-11-09T01:21:12.693Z,95794.66
2022-11-09T01:23:40.564Z,95789.59
2022-11-09T01:26:10.296Z,95806.66
2022-11-09T01:28:37.200Z,95732.63
2022-11-09T01:31:11.143Z,95790.44
2022-11-09T01:33:38.164Z,95779.38
2022-11-09T01:36:10.899Z,95784.13
2022-11-09T01:38:39.145Z,95766.44
2022-11-09T01:41:12.807Z,95786.66
2022-11-09T01:43:39.416Z,95754.19
2022-11-09T01:46:27.135Z,95789.59
2022-11-09T01:48:59.108Z,95782.94
2022-11-09T01:51:42.366Z,95798.72
2022-11-09T01:54:15.470Z,95771.31
2022-11-09T01:56:44.274Z,95788.56
2022-11-09T01:59:26.036Z,95787.16
2022-11-09T02:01:53.728Z,95760.50
2022-11-09T02:04:25.247Z,95787.16
2022-11-09T02:06:54.378Z,95732.69
2022-11-09T02:09:31.549Z,95781.16
2022-11-09T02:11:59.973Z,95731.66
2022-11-09T02:14:29.255Z,95778.19
2022-11-09T02:16:56.507Z,95768.28
2022-11-09T02:19:23.041Z,95785.25
2022-11-09T02:21:50.312Z,95751.56
2022-11-09T02:24:18.152Z,95736.41
2022-11-09T02:26:48.351Z,95757.13
2022-11-09T02:29:23.507Z,95768.22
2022-11-09T02:31:59.300Z,95767.16
2022-11-09T02:34:26.341Z,95777.94
2022-11-09T02:36:53.219Z,95763.69
2022-11-09T02:39:24.939Z,95776.34
2022-11-09T02:41:55.676Z,95774.75
2022-11-09T02:44:24.765Z,95773.31
2022-11-09T02:46:52.231Z,95788.97
2022-11-09T02:49:19.060Z,95770.94
2022-11-09T02:51:45.718Z,95770.59
2022-11-09T02:54:12.427Z,95750.19
2022-11-09T02:56:40.336Z,95774.06
2022-11-09T02:59:08.357Z,95772.25
2022-11-09T03:01:35.495Z,95785.69
2022-11-09T03:04:02.229Z,95787.69
2022-11-09T03:06:34.896Z,95779.91
2022-11-09T03:09:10.569Z,95782.13
2022-11-09T03:11:39.144Z,95775.22
2022-11-09T03:14:06.750Z,95751.81
2022-11-09T03:16:35.969Z,95749.16
2022-11-09T03:19:06.231Z,95771.50
2022-11-09T03:21:33.867Z,95766.00
2022-11-09T03:24:00.470Z,95768.34
2022-11-09T03:26:27.099Z,95774.03
2022-11-09T03:28:53.753Z,95804.66
2022-11-09T03:31:20.549Z,95738.66
2022-11-09T03:33:49.299Z,95776.78
2022-11-09T03:36:16.083Z,95789.59
2022-11-09T03:38:42.687Z,95747.16
2022-11-09T03:41:09.700Z,95786.63
2022-11-09T03:43:36.777Z,95693.09
2022-11-09T03:46:03.294Z,95751.50
2022-11-09T03:48:30.000Z,95781.88
2022-11-09T03:50:58.616Z,95773.91
2022-11-09T03:53:25.383Z,95788.06
2022-11-09T03:55:51.969Z,95773.50
2022-11-09T03:58:18.483Z,95767.34
2022-11-09T04:00:45.024Z,95753.59
2022-11-09T04:03:11.598Z,95767.38
2022-11-09T04:05:38.131Z,95784.25
2022-11-09T04:08:04.997Z,95778.31
2022-11-09T04:10:31.612Z,95726.66
2022-11-09T04:12:58.519Z,95761.34
2022-11-09T04:15:25.350Z,95772.66
2022-11-09T04:17:57.749Z,95766.66
2022-11-09T04:20:25.523Z,95737.22
2022-11-09T04:22:56.994Z,95778.59
2022-11-09T04:25:25.185Z,95774.41
2022-11-09T04:27:57.056Z,95764.53
2022-11-09T04:30:24.821Z,95727.13
2022-11-09T04:32:51.376Z,95729.22
2022-11-09T04:35:17.983Z,95740.94
2022-11-09T04:37:44.618Z,95757.41
2022-11-09T04:40:11.873Z,95772.53
2022-11-09T04:42:38.429Z,95771.06
2022-11-09T04:45:05.536Z,95774.66
2022-11-09T04:47:32.264Z,95778.84
2022-11-09T04:49:58.831Z,95765.28
2022-11-09T04:52:25.406Z,95726.22
2022-11-09T04:54:51.927Z,95759.25
2022-11-09T04:57:18.485Z,95770.09
2022-11-09T04:59:45.027Z,95777.75
2022-11-09T05:02:11.685Z,95794.34
2022-11-09T05:04:38.295Z,95753.47
2022-11-09T05:07:04.968Z,95777.13
2022-11-09T05:09:31.706Z,95781.03
2022-11-09T05:11:58.277Z,95796.94
2022-11-09T05:14:24.831Z,95775.63
2022-11-09T05:16:51.344Z,95748.81
2022-11-09T05:19:18.150Z,95772.41
2022-11-09T05:21:44.765Z,95748.34
2022-11-09T05:24:11.773Z,95788.44
2022-11-09T05:26:41.144Z,95771.44
2022-11-09T05:29:12.501Z,95788.56
2022-11-09T05:31:39.876Z,95768.63
2022-11-09T05:34:07.577Z,95769.69
2022-11-09T05:36:34.173Z,95753.63
2022-11-09T05:39:00.984Z,95778.81
2022-11-09T05:41:28.838Z,95784.88
2022-11-09T05:43:55.546Z,95777.00
2022-11-09T05:46:22.147Z,95776.75
2022-11-09T05:48:48.675Z,95794.34
2022-11-09T05:51:16.282Z,95781.56
2022-11-09T05:53:46.386Z,95777.09
2022-11-09T05:56:14.462Z,95774.41
2022-11-09T05:58:42.030Z,95788.19
2022-11-09T06:01:15.219Z,95789.69
2022-11-09T06:03:44.044Z,95791.16
2022-11-09T06:06:15.383Z,95758.69
2022-11-09T06:08:42.685Z,95800.50
2022-11-09T06:11:11.391Z,95801.38
2022-11-09T06:13:38.175Z,95754.97
2022-11-09T06:16:06.007Z,95780.91
2022-11-09T06:18:33.967Z,95775.38
2022-11-09T06:21:03.001Z,95815.16
2022-11-09T06:23:30.438Z,95814.81
2022-11-09T06:26:09.060Z,95751.28
2022-11-09T06:28:37.612Z,95852.97
2022-11-09T06:31:06.198Z,95857.44
2022-11-09T06:33:34.872Z,95835.25
2022-11-09T06:36:02.714Z,95851.38
2022-11-09T06:38:29.860Z,95855.78
2022-11-09T06:40:59.775Z,95866.00
2022-11-09T06:43:27.503Z,95879.69
2022-11-09T06:45:54.436Z,95880.81
2022-11-09T06:48:21.759Z,95897.28
2022-11-09T06:50:48.472Z,95874.75
2022-11-09T06:53:16.903Z,95907.75
2022-11-09T06:55:49.035Z,95912.56
2022-11-09T06:58:17.256Z,95938.72
2022-11-09T07:00:45.263Z,95910.31
2022-11-09T07:03:16.670Z,95921.28
2022-11-09T07:05:44.366Z,95926.34
2022-11-09T07:08:11.375Z,95946.66
2022-11-09T07:10:38.281Z,95939.81
2022-11-09T07:13:05.535Z,95932.75
2022-11-09T07:15:33.018Z,95934.34
2022-11-09T07:18:00.825Z,95926.19
2022-11-09T07:20:27.795Z,95927.78
2022-11-09T07:22:54.676Z,95930.31
2022-11-09T07:25:21.616Z,95940.41
2022-11-09T07:27:48.382Z,95940.66
2022-11-09T07:30:15.389Z,95923.00
2022-11-09T07:35:29.447Z,95931.16
2022-11-09T07:38:00.705Z,95933.59
2022-11-09T07:40:27.200Z,95933.81
2022-11-09T07:42:58.140Z,95931.97
2022-11-09T07:45:24.696Z,95928.59
2022-11-09T07:47:56.145Z,95931.75
2022-11-09T07:50:22.639Z,95920.69
2022-11-09T07:52:49.112Z,95929.34
2022-11-09T07:55:15.626Z,95931.06
2022-11-09T07:57:44.240Z,95936.22
2022-11-09T08:00:11.932Z,95921.28
2022-11-09T08:02:38.439Z,95929.59
2022-11-09T08:05:05.480Z,95924.66
2022-11-09T08:07:33.599Z,95932.25
2022-11-09T08:10:00.144Z,95936.06
2022-11-09T08:12:26.670Z,95931.84
2022-11-09T08:14:53.120Z,95944.38
2022-11-09T08:17:19.593Z,95944.69
2022-11-09T08:19:46.122Z,95950.59
2022-11-09T08:22:12.593Z,95946.59
2022-11-09T08:24:39.094Z,95948.94
2022-11-09T08:27:05.586Z,95950.09
2022-11-09T08:29:32.087Z,95951.03
2022-11-09T08:31:58.597Z,95947.78
2022-11-09T08:34:25.139Z,95948.00
2022-11-09T08:36:51.607Z,95942.59
2022-11-09T08:39:18.438Z,95947.53
2022-11-09T08:41:44.913Z,95944.50
2022-11-09T08:44:11.413Z,95954.81
2022-11-09T08:46:41.262Z,95960.09
2022-11-09T08:49:08.370Z,95957.63
2022-11-09T08:51:34.898Z,95955.09
2022-11-09T08:54:01.838Z,95956.03
2022-11-09T08:56:28.373Z,95959.91
2022-11-09T08:58:54.847Z,95951.56
2022-11-09T09:01:21.559Z,95973.41
2022-11-09T09:03:48.199Z,95965.47
2022-11-09T09:06:14.714Z,95968.28
2022-11-09T09:08:41.198Z,95969.31
2022-11-09T09:11:07.797Z,95973.84
2022-11-09T09:13:37.723Z,95961.28
2022-11-09T09:16:15.291Z,95958.06
2022-11-09T09:18:42.308Z,95963.03
2022-11-09T09:21:10.182Z,95963.72
2022-11-09T09:23:37.019Z,95975.41
2022-11-09T09:26:04.386Z,95974.31
2022-11-09T09:28:30.908Z,95973.59
2022-11-09T09:30:59.701Z,95983.44
2022-11-09T09:33:27.216Z,95988.03
2022-11-09T09:35:57.959Z,95976.94
2022-11-09T09:38:28.809Z,95978.03
2022-11-09T09:41:01.306Z,95976.94
2022-11-09T09:43:47.398Z,95977.97
2022-11-09T09:46:26.471Z,95971.25
2022-11-09T09:48:58.365Z,95974.28
2022-11-09T09:51:38.929Z,95981.09
2022-11-09T09:54:10.083Z,95978.41
2022-11-09T09:56:40.330Z,95974.44
2022-11-09T09:59:14.877Z,95952.06
2022-11-09T10:01:44.314Z,95972.13
2022-11-09T10:04:43.319Z,95966.03
2022-11-09T10:07:30.990Z,95962.13
2022-11-09T10:10:03.504Z,95969.66
2022-11-09T10:12:50.541Z,95972.94
2022-11-09T10:15:26.622Z,95959.75
2022-11-09T10:18:41.106Z,95962.38
2022-11-09T10:21:32.572Z,95974.47
2022-11-09T10:24:17.263Z,95972.69
2022-11-09T10:26:48.491Z,95967.22
2022-11-09T10:29:34.690Z,95968.94
2022-11-09T10:32:22.959Z,95961.38
2022-11-09T10:35:07.609Z,95948.09
2022-11-09T10:37:39.791Z,95944.81
2022-11-09T10:40:12.303Z,95951.59
2022-11-09T10:43:04.391Z,95949.06
2022-11-09T10:46:07.692Z,95948.63
2022-11-09T10:48:54.262Z,95953.94
2022-11-09T10:51:46.499Z,95921.75
2022-11-09T10:54:37.914Z,95926.03
2022-11-09T10:57:24.616Z,95914.72
2022-11-09T11:00:19.171Z,95923.63
2022-11-09T11:03:24.762Z,95919.75
2022-11-09T11:06:18.472Z,95920.69
2022-11-09T11:09:06.363Z,95917.38
2022-11-09T11:12:15.359Z,95914.84
2022-11-09T11:15:00.407Z,95918.75
2022-11-09T11:17:45.826Z,95917.66
2022-11-09T11:20:33.984Z,95910.72
2022-11-09T11:23:25.206Z,95910.66
2022-11-09T11:26:19.469Z,95901.66
2022-11-09T11:29:17.081Z,95895.50
2022-11-09T11:32:02.534Z,95897.22
2022-11-09T11:35:03.430Z,95903.72
2022-11-09T11:38:14.796Z,95898.88
2022-11-09T11:41:11.704Z,95887.69
2022-11-09T11:44:01.610Z,95881.31
2022-11-09T11:46:58.527Z,95896.59
2022-11-09T11:50:06.941Z,95897.84
2022-11-09T11:53:14.980Z,95903.78
2022-11-09T11:55:59.881Z,95901.00
2022-11-09T11:59:09.573Z,95895.34
2022-11-09T12:02:16.794Z,95881.69
2022-11-09T12:05:07.847Z,95886.22
2022-11-09T12:08:08.133Z,95873.44
2022-11-09T12:11:08.881Z,95866.22
2022-11-09T12:14:15.356Z,95873.72
2022-11-09T12:17:25.215Z,95868.75
2022-11-09T12:20:22.600Z,95876.00
2022-11-09T12:23:40.088Z,95870.31
2022-11-09T12:27:30.219Z,95861.03
2022-11-09T12:30:16.235Z,95874.94
2022-11-09T12:33:22.342Z,95851.19
2022-11-09T12:36:16.768Z,95853.53
2022-11-09T12:39:13.012Z,95852.16
2022-11-09T12:42:04.136Z,95855.19
2022-11-09T12:45:04.946Z,95861.75
2022-11-09T12:47:51.341Z,95851.72
2022-11-09T12:50:37.220Z,95848.03
2022-11-09T12:53:25.235Z,95841.03
2022-11-09T12:56:19.081Z,95839.72
2022-11-09T12:59:40.701Z,95812.91
2022-11-09T13:02:32.502Z,95831.94
2022-11-09T13:05:37.479Z,95831.31
2022-11-09T13:08:31.694Z,95818.75
2022-11-09T13:11:16.636Z,95838.56
2022-11-09T13:14:25.987Z,95841.56
2022-11-09T13:17:23.810Z,95835.13
2022-11-09T13:23:59.970Z,95828.66
2022-11-09T13:26:46.408Z,95830.16
2022-11-09T13:29:40.780Z,95828.78
2022-11-09T13:32:29.435Z,95828.75
2022-11-09T13:35:39.684Z,95830.25
2022-11-09T13:38:35.403Z,95831.00
2022-11-09T13:41:29.504Z,95826.72
2022-11-09T13:44:32.632Z,95821.69
2022-11-09T13:47:27.976Z,95821.69
2022-11-09T13:50:39.358Z,95820.28
2022-11-09T13:53:29.831Z,95828.19
2022-11-09T13:56:30.186Z,95830.38
2022-11-09T13:59:37.153Z,95838.22
2022-11-09T14:02:24.315Z,95827.28
2022-11-09T14:05:25.901Z,95833.97
2022-11-09T14:08:21.794Z,95851.91
2022-11-09T14:11:20.139Z,95835.41
2022-11-09T14:14:55.963Z,95838.31
2022-11-09T14:18:19.549Z,95833.94
2022-11-09T14:21:32.409Z,95838.94
2022-11-09T14:24:32.575Z,95846.75
2022-11-09T14:27:20.722Z,95850.38
2022-11-09T14:30:27.404Z,95822.53
2022-11-09T14:33:28.128Z,95851.75
2022-11-09T14:36:13.709Z,95850.97
2022-11-09T14:39:02.391Z,95843.06
2022-11-09T14:41:48.710Z,95852.44
2022-11-09T14:44:40.259Z,95849.50
2022-11-09T14:47:32.696Z,95848.78
2022-11-09T14:50:30.399Z,95845.78
2022-11-09T14:53:42.538Z,95853.75
2022-11-09T14:56:29.094Z,95861.63
2022-11-09T14:59:17.406Z,95849.34
2022-11-09T15:02:11.723Z,95852.22
2022-11-09T15:04:59.507Z,95855.66
2022-11-09T15:07:46.963Z,95851.94
2022-11-09T15:10:32.978Z,95863.97
2022-11-09T15:13:19.767Z,95861.16
2022-11-09T15:16:06.913Z,95853.13
2022-11-09T15:18:52.250Z,95850.84
2022-11-09T15:21:38.135Z,95872.44
2022-11-09T15:24:25.496Z,95865.16
2022-11-09T15:27:34.107Z,95869.25
2022-11-09T15:30:46.252Z,95867.06
2022-11-09T15:33:44.748Z,95870.44
2022-11-09T15:36:35.991Z,95871.84
2022-11-09T15:39:23.184Z,95866.09
2022-11-09T15:42:11.797Z,95880.34
2022-11-09T15:44:58.958Z,95873.09
2022-11-09T15:47:53.670Z,95870.91
2022-11-09T15:50:52.118Z,95867.09
2022-11-09T15:53:41.355Z,95876.25
2022-11-09T15:56:26.358Z,95873.13
2022-11-09T15:59:26.758Z,95880.22
2022-11-09T16:02:12.120Z,95880.13
2022-11-09T16:04:57.124Z,95895.88
2022-11-09T16:07:53.409Z,95894.22
2022-11-09T16:10:40.345Z,95905.66
2022-11-09T16:13:25.228Z,95900.50
2022-11-09T16:16:11.997Z,95907.66
2022-11-09T16:18:57.916Z,95899.72
2022-11-09T16:21:43.136Z,95904.72
2022-11-09T16:24:29.411Z,95911.63
2022-11-09T16:27:35.267Z,95916.63
2022-11-09T16:30:20.416Z,95933.13
2022-11-09T16:33:05.507Z,95925.97
2022-11-09T16:35:50.540Z,95928.72
2022-11-09T16:38:44.699Z,95913.84
2022-11-09T16:41:30.557Z,95934.00
2022-11-09T16:44:19.175Z,95939.06
2022-11-09T16:47:06.941Z,95923.59
2022-11-09T16:49:51.825Z,95946.75
2022-11-09T16:52:36.820Z,95957.47
2022-11-09T16:55:22.079Z,95955.94
2022-11-09T16:58:07.028Z,95957.28
2022-11-09T17:03:57.637Z,95962.09
2022-11-09T17:06:42.801Z,95964.91
2022-11-09T17:09:28.005Z,95978.56
2022-11-09T17:12:14.147Z,95976.97
2022-11-09T17:14:59.378Z,95966.63
2022-11-09T17:17:44.511Z,95982.63
2022-11-09T17:20:29.485Z,95993.28
2022-11-09T17:23:18.069Z,95997.63
2022-11-09T17:26:05.224Z,96004.09
2022-11-09T17:28:50.913Z,96016.09
2022-11-09T17:31:36.789Z,96017.56
2022-11-09T17:34:21.654Z,96014.63
2022-11-09T17:37:06.718Z,96014.56
2022-11-09T17:39:51.576Z,96024.56
2022-11-09T17:42:36.869Z,96017.22
2022-11-09T17:45:22.462Z,96027.34
2022-11-09T17:48:07.482Z,96038.91
2022-11-09T17:50:52.812Z,96038.81
2022-11-09T17:53:43.481Z,96033.78
2022-11-09T17:56:29.028Z,96035.88
2022-11-09T17:59:13.946Z,96048.84
2022-11-09T18:01:58.900Z,96038.75
2022-11-09T18:04:44.144Z,96039.50
2022-11-09T18:07:31.107Z,96045.88
2022-11-09T18:10:16.262Z,96044.88
2022-11-09T18:13:01.851Z,96058.69
2022-11-09T18:15:46.735Z,96050.69
2022-11-09T18:18:32.013Z,96060.69
2022-11-09T18:21:19.562Z,96062.72
2022-11-09T18:24:04.706Z,96061.78
2022-11-09T18:26:50.008Z,96058.91
2022-11-09T18:29:34.948Z,96073.16
2022-11-09T18:32:20.200Z,96063.91
2022-11-09T18:35:06.570Z,96035.06
2022-11-09T18:37:51.620Z,96072.91
2022-11-09T18:40:36.949Z,96067.94
2022-11-09T18:43:21.865Z,96067.09
2022-11-09T18:46:09.452Z,96083.72
2022-11-09T18:48:54.774Z,96059.91
2022-11-09T18:51:39.687Z,96061.00
2022-11-09T18:54:24.859Z,96076.53
2022-11-09T18:57:13.780Z,96088.00
2022-11-09T19:00:03.057Z,96070.81
2022-11-09T19:02:48.414Z,96081.59
2022-11-09T19:05:36.779Z,96075.63
2022-11-09T19:08:42.289Z,96086.38
2022-11-09T19:11:27.426Z,96094.81
2022-11-09T19:14:12.756Z,96088.34
2022-11-09T19:16:57.813Z,96092.59
2022-11-09T19:19:43.047Z,96098.34
2022-11-09T19:22:29.095Z,96096.34
2022-11-09T19:25:14.722Z,96108.03
2022-11-09T19:27:59.806Z,96112.63
2022-11-09T19:30:44.822Z,96124.09
2022-11-09T19:33:30.113Z,96126.31
2022-11-09T19:36:29.864Z,96122.69
2022-11-09T19:39:16.531Z,96121.13
2022-11-09T19:42:01.811Z,96123.28
2022-11-09T19:44:49.798Z,96126.56
2022-11-09T19:47:37.521Z,96116.41
2022-11-09T19:50:22.737Z,96120.84
2022-11-09T19:53:07.575Z,96126.72
2022-11-09T19:56:04.373Z,96118.72
2022-11-09T19:58:51.165Z,96125.00
2022-11-09T20:01:36.457Z,96131.34
2022-11-09T20:04:21.273Z,96134.13
2022-11-09T20:07:06.815Z,96124.94
2022-11-09T20:09:53.606Z,96133.97
2022-11-09T20:12:50.848Z,96134.84
2022-11-09T20:15:36.443Z,96151.28
2022-11-09T20:18:23.900Z,96149.91
2022-11-09T20:21:09.162Z,96146.28
2022-11-09T20:23:54.661Z,96154.97
2022-11-09T20:26:40.568Z,96150.72
2022-11-09T20:29:25.543Z,96138.38
2022-11-09T20:32:12.437Z,96154.41
2022-11-09T20:34:58.136Z,96140.97
2022-11-09T20:37:43.169Z,96162.00
2022-11-09T20:40:28.396Z,96151.78
2022-11-09T20:43:13.723Z,96153.81
2022-11-09T20:46:07.402Z,96162.84
2022-11-09T20:48:54.721Z,96163.22
2022-11-09T20:51:40.719Z,96168.19
2022-11-09T20:54:25.927Z,96173.22
2022-11-09T20:57:10.966Z,96173.28
2022-11-09T20:59:56.087Z,96172.97
2022-11-09T21:02:42.503Z,96180.16
2022-11-09T21:05:27.612Z,96172.97
2022-11-09T21:08:12.704Z,96180.16
2022-11-09T21:11:00.584Z,96168.38
2022-11-09T21:13:50.171Z,96172.88
2022-11-09T21:16:35.292Z,96199.69
2022-11-09T21:19:20.225Z,96184.78
2022-11-09T21:22:05.385Z,96202.72
2022-11-09T21:25:09.333Z,96191.56
2022-11-09T21:28:13.170Z,96200.81
2022-11-09T21:31:03.100Z,96202.03
2022-11-09T21:33:48.393Z,96213.97
2022-11-09T21:36:33.465Z,96215.34
2022-11-09T21:39:18.824Z,96217.38
2022-11-09T21:42:04.636Z,96216.28
2022-11-09T21:44:49.750Z,96233.16
2022-11-09T21:47:35.154Z,96225.88
2022-11-09T21:50:20.209Z,96226.34
2022-11-09T21:53:05.348Z,96222.03
2022-11-09T21:55:50.673Z,96228.13
2022-11-09T21:58:37.821Z,96222.94
2022-11-09T22:01:23.821Z,96227.66
2022-11-09T22:04:09.332Z,96242.31
2022-11-09T22:06:55.553Z,96214.75
2022-11-09T22:10:08.137Z,96270.00
2022-11-09T22:13:04.329Z,96214.66
2022-11-09T22:16:08.003Z,96215.75
2022-11-09T22:19:12.011Z,96255.06
2022-11-09T22:21:57.513Z,96256.88
2022-11-09T22:24:42.730Z,96276.00
2022-11-09T22:27:31.104Z,96263.53
2022-11-09T22:30:16.548Z,96262.41
2022-11-09T22:33:01.562Z,96267.03
2022-11-09T22:35:56.631Z,96266.03
2022-11-09T22:38:42.035Z,96277.00
2022-11-09T22:41:27.390Z,96283.28
2022-11-09T22:44:15.354Z,96295.44
2022-11-09T22:47:00.377Z,96279.97
2022-11-09T22:49:45.780Z,96295.53
2022-11-09T22:52:31.042Z,96287.59
2022-11-09T22:55:16.330Z,96298.59
2022-11-09T22:58:01.714Z,96285.84
2022-11-09T23:00:47.890Z,96305.03
2022-11-09T23:03:33.765Z,96294.97
2022-11-09T23:06:21.570Z,96300.63
2022-11-09T23:09:07.070Z,96293.03
2022-11-09T23:11:52.965Z,96309.53
2022-11-09T23:14:56.707Z,96300.97
2022-11-09T23:18:00.665Z,96311.69
2022-11-09T23:20:45.815Z,96306.88
2022-11-09T23:23:30.957Z,96314.44
2022-11-09T23:26:16.894Z,96305.59
2022-11-09T23:29:02.161Z,96309.81
2022-11-09T23:31:47.714Z,96309.25
2022-11-09T23:34:33.166Z,96313.16
2022-11-09T23:37:18.355Z,96325.44
2022-11-09T23:40:04.915Z,96318.88
2022-11-09T23:42:49.814Z,96320.06
2022-11-09T23:45:36.811Z,96319.88
2022-11-09T23:48:22.280Z,96310.19
2022-11-09T23:51:08.987Z,96322.16
2022-11-09T23:53:54.058Z,96326.41
2022-11-09T23:56:39.313Z,96331.41
2022-11-09T23:59:24.555Z,96327.31
